Main page
METAR-TAF:

METAR-TAF

Airports :

Orléans – Bricy Air Base

Orléans, France

latitude: 47-59N, longitude: 001-45E, elevation: 126 m

Current weather observation

The report was made 21 minutes ago, at 16:00 UTC
Wind 6 kt from the Southeast, varying between East and South
Temperature 18°C
Humidity 32%
Pressure 1018 hPa
Visibility 10 km or more
no clouds below 1500 m and no cumulonimbus

METAR: LFOJ 041600Z AUTO 13006KT 090V170 CAVOK 18/01 Q1018 NOSIG

Time: 18:21 (16:21 UTC)

Forecast

The report was made 2 hours and 21 minutes ago, at 14:00 UTC
Forecast valid from 04 at 15 UTC to 05 at 15 UTC
Wind 10 kt from the East/Southeast
Visibility 10 km or more
no clouds below 1500 m and no cumulonimbus
Becoming
from 05 at 10 UTC to 05 at 12 UTC
Wind 13 kt from the South

TAF: LFOJ 041400Z 0415/0515 12010KT CAVOK BECMG 0510/0512 18013KT

Weather observations and forecasts of more than 4000 airports (METAR and TAF reports).

The available stations are represented by yellow and red dots on the map.

Hover mouse over dot to see the name of the station.

Then click to see weather observations and forecasts.

To change the map : click on the green buttons with a black cross to zoom in, on the green button with a dash to zoom out, or on the green arrows for adjacent maps.


METAR-TAF: